Sheridan, WY

5:43 PM MDT on September 01, 2014 (GMT -0600)
South Big Horn County | Change Station
CLOSE
Current Station
Airport
Location: Greybull,
Elevation: 3934 ft
Nearby Weather Stations

Elev 3934 ft 44.52 °N, 108.08 °W | Updated 50 minutes ago

Clear
Clear
72 °F
Feels Like 72 °F
N
6
Wind Variable Wind from NE

Today
High -- | Low -- °F
--% Chance of Precip.
Yesterday
High -- | Low -- °F
Precip. -- in
6:30 AM 7:44 PM
Waxing Crescent, 45% visible
Pressure 29.88 in
Visibility 10.0 miles
Clouds Clear
Dew Point 39 °F
Humidity 30%
Rainfall 0.00 in
Snow Depth Not available.
UV 3 out of 12
Pollen 7.30 out of 12
Air Quality Not available.
Flu Activity Not available.
METAR KGEY 012253Z AUTO 04005KT 10SM CLR 22/04 A2995 RMK AO2 SLP119 T02220039 $

More Conditions Fewer Conditions

Pressure 29.88 in
Visibility 10.0 miles
Clouds Clear
Dew Point 39 °F
Humidity 30%
Rainfall 0.00 in
Snow Depth Not available.
UV 3 out of 12
Pollen 7.30 out of 12
Air Quality Not available.
Flu Activity Not available.
METAR KGEY 012253Z AUTO 04005KT 10SM CLR 22/04 A2995 RMK AO2 SLP119 T02220039 $

More Conditions Fewer Conditions

10-Day Weather Forecast

Almanac

Astronomy

Sep. 01, 2014 Rise Set
Actual Time 6:30 AM MDT 7:44 PM MDT
Civil Twilight 6:00 AM MDT 8:14 PM MDT
Nautical Twilight 5:23 AM MDT 8:50 PM MDT
Astronomical Twilight 4:45 AM MDT 9:29 PM MDT
Moon 1:35 PM MDT 11:30 PM MDT
Length of Visible Light 14h 14m
Length of Day
13h 14m
Tomorrow will be 3m 0s shorter.
Waxing Crescent, 45% of the Moon is Illuminated
Today
Waxing Crescent
Sep 2
First Quarter
Sep 8
Full
Sep 15
Last Quarter
Sep 24
New

Today's Extremes

State Highs State Lows

Community

WunderPhotos

Upload Photos

1,749,440 photos uploaded!

Nearby

Snow Depth

Station Depth Elevation
Casper Mountain 0 in 7850 ft
Gunsight Pass 4 in 9820 ft
Thumb Divide 0 in 7980 ft
Gros Ventre Summit 0 in 8750 ft
Kendall R.S. 0 in 7740 ft

Earthquake Activity

City Distance Mag. Time & Date
No recent earthquake activity has been reported nearby.
Minimum magnitude displayed is 2.5.

Coastal Water Temperatures

Place Temperature
No Stations Reporting

Nearby Weather Stations